Time;durP1;ratioP1;P1;durP2;ratioP2;P2;SDS_P1;SDS_P2;PMS_P1;PMS_P2;Temp;Humidity;BMP_temperature;BMP_pressure;BME280_temperature;BME280_humidity;BME280_pressure;Samples;Min_cycle;Max_cycle;Signal;HPM_P1;HPM_P2
2021/08/31 00:01:44;;;;;;;10.40;9.40;;;16.20;99.90;;;;;;5032623;28;20187;-51
2021/08/31 00:04:10;;;;;;;10.53;9.43;;;16.60;99.90;;;;;;5028280;28;20189;-50
2021/08/31 00:06:36;;;;;;;11.30;10.10;;;16.70;99.90;;;;;;5032908;28;20339;-51
2021/08/31 00:09:02;;;;;;;11.17;9.97;;;16.70;99.90;;;;;;5032445;28;20201;-50
2021/08/31 00:11:27;;;;;;;10.10;9.10;;;16.80;99.90;;;;;;5028438;28;20201;-50
2021/08/31 00:13:53;;;;;;;10.20;9.30;;;16.70;99.90;;;;;;5031879;28;20467;-51
2021/08/31 00:16:19;;;;;;;9.97;9.07;;;16.60;99.90;;;;;;5030434;28;20206;-51
2021/08/31 00:18:44;;;;;;;11.07;9.97;;;16.70;99.90;;;;;;5031164;28;20214;-52
2021/08/31 00:21:11;;;;;;;10.73;9.73;;;16.50;99.90;;;;;;5029718;28;20498;-51
2021/08/31 00:23:37;;;;;;;9.40;8.50;;;16.80;99.90;;;;;;5032425;28;20950;-50
2021/08/31 00:26:04;;;;;;;9.90;8.90;;;16.30;99.90;;;;;;5031273;28;20274;-51
2021/08/31 00:28:29;;;;;;;11.00;10.05;;;16.80;99.90;;;;;;5031263;28;20182;-52
2021/08/31 00:30:55;;;;;;;9.97;9.10;;;16.80;99.90;;;;;;5032166;28;20579;-52
2021/08/31 00:33:21;;;;;;;10.87;9.87;;;16.80;99.90;;;;;;5032359;28;21138;-51
2021/08/31 00:35:47;;;;;;;10.73;9.63;;;16.80;99.90;;;;;;5030750;28;20449;-51
2021/08/31 00:38:13;;;;;;;11.53;10.50;;;16.80;99.90;;;;;;5025162;28;20206;-50
2021/08/31 00:40:38;;;;;;;10.63;9.63;;;16.60;99.90;;;;;;5031896;28;20522;-51
2021/08/31 00:43:05;;;;;;;11.30;10.30;;;16.80;99.90;;;;;;5030303;28;20325;-52
2021/08/31 00:45:31;;;;;;;11.88;10.57;;;16.60;99.90;;;;;;5032441;28;20178;-50
2021/08/31 00:47:58;;;;;;;11.80;10.60;;;16.60;99.90;;;;;;5031456;28;20594;-50
2021/08/31 00:50:24;;;;;;;11.18;10.05;;;16.70;99.90;;;;;;5031708;28;20195;-50
2021/08/31 00:52:51;;;;;;;11.63;10.43;;;16.50;99.90;;;;;;5028216;28;20186;-50
2021/08/31 00:55:17;;;;;;;12.15;10.77;;;16.50;99.90;;;;;;5032365;28;20448;-51
2021/08/31 00:57:43;;;;;;;13.70;11.43;;;16.50;99.90;;;;;;5028222;28;20210;-51
2021/08/31 01:00:13;;;;;;;13.17;11.87;;;16.60;99.90;;;;;;5030663;28;20185;-51
2021/08/31 01:02:40;;;;;;;13.82;12.52;;;16.60;99.90;;;;;;5031993;28;20441;-51
2021/08/31 01:05:07;;;;;;;12.13;10.93;;;16.50;99.90;;;;;;5026591;28;20190;-52
2021/08/31 01:07:33;;;;;;;13.30;11.73;;;16.50;99.90;;;;;;5026035;28;20206;-52
2021/08/31 01:10:03;;;;;;;14.48;12.23;;;16.50;99.90;;;;;;5031583;28;20182;-52
2021/08/31 01:12:30;;;;;;;14.25;12.75;;;16.30;99.90;;;;;;5024398;28;20685;-51
2021/08/31 01:14:56;;;;;;;13.30;11.52;;;16.50;99.90;;;;;;5031187;28;20702;-51
2021/08/31 01:17:28;;;;;;;13.23;11.82;;;16.50;99.90;;;;;;5030635;28;20289;-50
2021/08/31 01:19:54;;;;;;;13.38;11.63;;;16.50;99.90;;;;;;5026610;28;20189;-50
2021/08/31 01:22:20;;;;;;;13.27;11.93;;;16.70;99.90;;;;;;5027030;28;20559;-50
2021/08/31 01:24:56;;;;;;;13.10;11.80;;;16.60;99.90;;;;;;5031634;28;20457;-50
2021/08/31 01:27:22;;;;;;;13.73;12.43;;;16.70;99.90;;;;;;5021352;28;20272;-50
2021/08/31 01:29:49;;;;;;;14.00;12.50;;;16.70;99.90;;;;;;5031323;28;20182;-51
2021/08/31 01:32:14;;;;;;;14.25;12.73;;;16.60;99.90;;;;;;5045282;28;20196;-51
2021/08/31 01:34:40;;;;;;;15.23;13.47;;;16.70;99.90;;;;;;5030503;28;20635;-51
2021/08/31 01:37:10;;;;;;;14.83;12.53;;;16.80;99.90;;;;;;5025073;28;20260;-50
2021/08/31 01:39:35;;;;;;;15.65;12.77;;;16.70;99.90;;;;;;5029553;28;20185;-51
2021/08/31 01:42:01;;;;;;;14.40;12.90;;;16.80;99.90;;;;;;5027148;28;20733;-51
2021/08/31 01:44:27;;;;;;;16.77;13.70;;;16.80;99.90;;;;;;5031240;28;20686;-52
2021/08/31 01:46:52;;;;;;;16.03;14.43;;;16.80;99.90;;;;;;5026849;28;20620;-50
2021/08/31 01:49:19;;;;;;;16.57;14.47;;;16.90;99.90;;;;;;5030038;28;20535;-51
2021/08/31 01:51:45;;;;;;;17.08;15.38;;;16.60;99.90;;;;;;5021437;28;20217;-50
2021/08/31 01:54:10;;;;;;;21.77;16.00;;;16.40;99.90;;;;;;5029063;28;20667;-52
2021/08/31 01:56:36;;;;;;;17.97;15.10;;;16.50;99.90;;;;;;5027937;28;20198;-51
2021/08/31 01:59:02;;;;;;;19.57;15.67;;;16.30;99.90;;;;;;5029813;28;20210;-51
2021/08/31 02:01:28;;;;;;;15.80;13.73;;;16.50;99.90;;;;;;5030065;28;20182;-51
2021/08/31 02:03:53;;;;;;;17.10;14.93;;;16.50;99.90;;;;;;5030705;28;20178;-50
2021/08/31 02:06:19;;;;;;;19.03;16.20;;;16.10;99.90;;;;;;5029739;28;20193;-52
2021/08/31 02:08:57;;;;;;;19.77;16.20;;;16.00;99.90;;;;;;5028918;28;20190;-51
2021/08/31 02:11:22;;;;;;;17.67;15.77;;;16.10;99.90;;;;;;5026908;28;20182;-50
2021/08/31 02:13:48;;;;;;;19.03;15.67;;;16.00;99.90;;;;;;5030601;28;20755;-50
2021/08/31 02:16:14;;;;;;;18.77;16.57;;;16.20;99.90;;;;;;5029852;28;20655;-52
2021/08/31 02:18:40;;;;;;;18.37;15.17;;;16.10;99.90;;;;;;5028971;28;20683;-51
2021/08/31 02:21:10;;;;;;;16.38;14.68;;;16.40;99.90;;;;;;5025990;28;20187;-51
2021/08/31 02:23:39;;;;;;;17.20;14.68;;;16.30;99.90;;;;;;5030631;28;20185;-50
2021/08/31 02:26:05;;;;;;;15.68;13.82;;;16.10;99.90;;;;;;5029160;28;20190;-51
2021/08/31 02:28:31;;;;;;;16.67;14.97;;;16.40;99.90;;;;;;5021650;28;20281;-51
2021/08/31 02:30:56;;;;;;;16.77;15.00;;;16.10;99.90;;;;;;5029599;28;20953;-52
2021/08/31 02:33:22;;;;;;;15.93;14.30;;;16.00;99.90;;;;;;5030787;28;20543;-50
2021/08/31 02:35:48;;;;;;;17.97;15.97;;;16.00;99.90;;;;;;5023520;28;20190;-51
2021/08/31 02:38:13;;;;;;;17.60;14.90;;;16.10;99.90;;;;;;5031836;28;20578;-51
2021/08/31 02:40:39;;;;;;;16.20;14.50;;;16.10;99.90;;;;;;5028955;28;20223;-51
2021/08/31 02:43:05;;;;;;;17.70;15.43;;;15.80;99.90;;;;;;5025285;28;20190;-51
2021/08/31 02:45:31;;;;;;;19.00;15.03;;;16.00;99.90;;;;;;5026943;28;20468;-50
2021/08/31 02:47:56;;;;;;;16.93;15.23;;;15.90;99.90;;;;;;5028474;28;20728;-51
2021/08/31 02:50:22;;;;;;;15.30;13.70;;;16.00;99.90;;;;;;5024155;28;20198;-50
2021/08/31 02:52:49;;;;;;;16.80;15.00;;;15.90;99.90;;;;;;5030034;28;20281;-51
2021/08/31 02:55:14;;;;;;;18.25;14.50;;;15.90;99.90;;;;;;5029211;28;20244;-51
2021/08/31 02:57:40;;;;;;;16.83;15.00;;;15.80;99.90;;;;;;5026995;28;20206;-51
2021/08/31 03:00:07;;;;;;;16.40;13.83;;;16.00;99.90;;;;;;5028719;28;20248;-52
2021/08/31 03:02:33;;;;;;;17.02;13.38;;;16.00;99.90;;;;;;5027545;28;20183;-51
2021/08/31 03:04:59;;;;;;;15.50;13.90;;;16.10;99.90;;;;;;5028526;28;20232;-52
2021/08/31 03:07:24;;;;;;;16.83;14.67;;;16.00;99.90;;;;;;5029683;28;20456;-52
2021/08/31 03:09:50;;;;;;;15.73;13.97;;;16.20;99.90;;;;;;5029811;28;20237;-50
2021/08/31 03:12:16;;;;;;;14.30;12.50;;;16.20;99.90;;;;;;5018858;28;20186;-51
2021/08/31 03:14:42;;;;;;;14.50;13.00;;;16.40;99.90;;;;;;5030003;28;20522;-51
2021/08/31 03:17:08;;;;;;;16.00;13.90;;;16.10;99.90;;;;;;5028825;28;20236;-51
2021/08/31 03:19:34;;;;;;;15.93;14.32;;;16.00;99.90;;;;;;5026212;28;20210;-51
2021/08/31 03:22:01;;;;;;;15.83;13.97;;;16.10;99.90;;;;;;5024960;28;20647;-51
2021/08/31 03:24:27;;;;;;;17.95;15.38;;;15.80;99.90;;;;;;5029477;28;20217;-50
2021/08/31 03:26:54;;;;;;;16.30;14.60;;;15.90;99.90;;;;;;5022294;28;20692;-51
2021/08/31 03:29:20;;;;;;;16.00;14.40;;;16.10;99.90;;;;;;5029163;28;20973;-52
2021/08/31 03:31:46;;;;;;;16.48;14.80;;;15.80;99.90;;;;;;5029977;28;20195;-51
2021/08/31 03:34:12;;;;;;;17.88;15.00;;;16.10;99.90;;;;;;5026652;28;20247;-50
2021/08/31 03:36:38;;;;;;;16.93;14.27;;;16.30;99.90;;;;;;5024224;28;20206;-51
2021/08/31 03:39:05;;;;;;;17.00;14.48;;;16.20;99.90;;;;;;5029022;28;20472;-51
2021/08/31 03:41:31;;;;;;;16.15;13.25;;;16.10;99.90;;;;;;5027427;28;20189;-52
2021/08/31 03:43:56;;;;;;;16.40;13.43;;;16.20;99.90;;;;;;5029131;28;20182;-51
2021/08/31 03:46:22;;;;;;;16.10;14.40;;;16.30;99.90;;;;;;5029615;28;20206;-52
2021/08/31 03:48:48;;;;;;;16.13;14.43;;;16.50;99.90;;;;;;5028815;28;20182;-52
2021/08/31 03:51:14;;;;;;;15.87;14.07;;;16.20;99.90;;;;;;5026636;28;20452;-51
2021/08/31 03:53:41;;;;;;;21.90;15.50;;;16.40;99.90;;;;;;5028358;28;20591;-51
2021/08/31 03:56:07;;;;;;;18.10;15.38;;;16.20;99.90;;;;;;5021023;28;20819;-51
2021/08/31 03:58:32;;;;;;;17.60;15.70;;;16.20;99.90;;;;;;5027881;28;20210;-52
2021/08/31 04:00:58;;;;;;;18.00;14.77;;;16.30;99.90;;;;;;5031585;28;20432;-52
2021/08/31 04:03:24;;;;;;;17.70;14.70;;;16.40;99.90;;;;;;5033268;28;20186;-51
2021/08/31 04:05:49;;;;;;;16.60;14.40;;;16.50;99.90;;;;;;5029153;28;20644;-51
2021/08/31 04:08:15;;;;;;;18.03;14.97;;;16.60;99.90;;;;;;5032765;28;20210;-52
2021/08/31 04:10:41;;;;;;;17.80;15.90;;;16.40;99.90;;;;;;5032072;28;20181;-51
2021/08/31 04:13:07;;;;;;;16.80;14.47;;;16.20;99.90;;;;;;5030848;28;20198;-52
2021/08/31 04:15:34;;;;;;;17.00;14.85;;;16.00;99.90;;;;;;5029816;28;20197;-50
2021/08/31 04:18:00;;;;;;;18.90;16.35;;;16.20;99.90;;;;;;5029524;28;20232;-51
2021/08/31 04:20:25;;;;;;;15.87;13.90;;;16.20;99.90;;;;;;5030067;28;20183;-52
2021/08/31 04:22:51;;;;;;;19.17;16.10;;;16.30;99.90;;;;;;5032836;28;20178;-51
2021/08/31 04:25:17;;;;;;;19.93;16.50;;;16.30;99.90;;;;;;5032130;28;20186;-50
2021/08/31 04:27:42;;;;;;;18.00;16.10;;;16.40;99.90;;;;;;5025628;28;20208;-50
2021/08/31 04:30:09;;;;;;;18.10;16.07;;;16.30;99.90;;;;;;5031967;28;20182;-52
2021/08/31 04:32:34;;;;;;;17.05;15.23;;;16.30;99.90;;;;;;5029729;28;20214;-50
2021/08/31 04:35:03;;;;;;;20.60;17.20;;;16.30;99.90;;;;;;5030014;28;20244;-51
2021/08/31 04:37:30;;;;;;;19.45;15.07;;;16.00;99.90;;;;;;5020697;28;20522;-50
2021/08/31 04:39:56;;;;;;;18.85;16.23;;;16.10;99.90;;;;;;5026626;28;20185;-50
2021/08/31 04:42:22;;;;;;;17.85;15.48;;;16.40;99.90;;;;;;5027241;28;20269;-50
2021/08/31 04:44:47;;;;;;;18.83;15.43;;;16.50;99.90;;;;;;5031155;28;20273;-51
2021/08/31 04:47:15;;;;;;;17.70;14.60;;;16.50;99.90;;;;;;5031068;28;20259;-52
2021/08/31 04:49:40;;;;;;;17.02;15.25;;;16.40;99.90;;;;;;5024825;28;20182;-52
2021/08/31 04:52:07;;;;;;;16.40;14.33;;;16.60;99.90;;;;;;5023918;28;20200;-50
2021/08/31 04:54:33;;;;;;;16.90;15.00;;;16.30;99.90;;;;;;5017777;28;20182;-50
2021/08/31 04:56:58;;;;;;;15.00;13.38;;;16.50;99.90;;;;;;5016010;28;20255;-52
2021/08/31 04:59:24;;;;;;;18.40;15.20;;;16.60;99.90;;;;;;5031925;28;20202;-50
2021/08/31 05:01:50;;;;;;;15.40;13.80;;;16.40;99.90;;;;;;5023470;28;20186;-51
2021/08/31 05:04:17;;;;;;;15.30;13.70;;;16.10;99.90;;;;;;5029738;28;20949;-51
2021/08/31 05:06:43;;;;;;;15.30;13.70;;;16.40;99.90;;;;;;5024496;28;20460;-50
2021/08/31 05:09:08;;;;;;;16.43;13.90;;;16.20;99.90;;;;;;5031292;28;20190;-51
2021/08/31 05:11:34;;;;;;;16.57;14.87;;;16.40;99.90;;;;;;5025490;28;20183;-51
2021/08/31 05:14:00;;;;;;;18.83;14.70;;;16.30;99.90;;;;;;5016167;28;20197;-52
2021/08/31 05:16:25;;;;;;;15.80;13.53;;;16.30;99.90;;;;;;5029500;28;20210;-51
2021/08/31 05:18:51;;;;;;;18.00;16.10;;;16.30;99.90;;;;;;5019983;28;20288;-50
2021/08/31 05:21:17;;;;;;;16.70;14.90;;;16.40;99.90;;;;;;5030544;28;20189;-51
2021/08/31 05:23:43;;;;;;;18.60;15.20;;;16.50;99.90;;;;;;5027279;28;20236;-52
2021/08/31 05:26:08;;;;;;;16.00;14.20;;;16.40;99.90;;;;;;5025222;28;20239;-50
2021/08/31 05:28:34;;;;;;;16.70;14.90;;;16.40;99.90;;;;;;5026395;28;20450;-50
2021/08/31 05:31:00;;;;;;;16.87;13.87;;;16.30;99.90;;;;;;5029985;28;20194;-51
2021/08/31 05:33:25;;;;;;;15.20;13.43;;;16.30;99.90;;;;;;5025644;28;20558;-52
2021/08/31 05:35:51;;;;;;;14.90;13.40;;;16.80;99.90;;;;;;5012931;28;20182;-51
2021/08/31 05:38:16;;;;;;;16.67;14.80;;;16.50;99.90;;;;;;5023546;28;20218;-52
2021/08/31 05:40:42;;;;;;;16.90;14.37;;;16.70;99.90;;;;;;5024430;28;20193;-52
2021/08/31 05:43:08;;;;;;;18.90;16.07;;;16.50;99.90;;;;;;5022465;28;20182;-51
2021/08/31 05:45:33;;;;;;;17.17;15.40;;;16.20;99.90;;;;;;5023489;28;20182;-51
2021/08/31 05:47:59;;;;;;;16.30;14.53;;;16.30;99.90;;;;;;5028354;28;20213;-52
2021/08/31 05:50:25;;;;;;;17.07;14.77;;;16.30;99.90;;;;;;5027838;28;20255;-51
2021/08/31 05:52:51;;;;;;;17.10;14.67;;;16.50;99.90;;;;;;5025961;28;20186;-51
2021/08/31 05:55:17;;;;;;;17.80;14.90;;;16.60;99.90;;;;;;5023686;28;20432;-52
2021/08/31 05:57:43;;;;;;;15.77;14.18;;;16.40;99.90;;;;;;5029856;28;20528;-51
2021/08/31 06:00:11;;;;;;;18.10;15.45;;;16.50;99.90;;;;;;5024847;28;20565;-51
2021/08/31 06:02:38;;;;;;;16.50;14.80;;;16.40;99.90;;;;;;5029766;28;20178;-53
2021/08/31 06:05:07;;;;;;;14.65;13.15;;;16.40;99.90;;;;;;5018454;28;20186;-54
2021/08/31 06:07:35;;;;;;;16.45;13.88;;;16.50;99.90;;;;;;5025991;28;20691;-54
2021/08/31 06:10:03;;;;;;;15.70;12.07;;;16.20;99.90;;;;;;5026814;28;20201;-54
2021/08/31 06:12:29;;;;;;;15.20;13.20;;;16.40;99.90;;;;;;5019993;28;20253;-55
2021/08/31 06:14:55;;;;;;;15.07;13.53;;;16.70;99.90;;;;;;5025769;28;20686;-54
2021/08/31 06:17:22;;;;;;;15.70;14.10;;;17.00;99.90;;;;;;5024226;28;20405;-50
2021/08/31 06:19:48;;;;;;;14.43;13.02;;;17.00;99.90;;;;;;5024342;28;20224;-52
2021/08/31 06:22:14;;;;;;;18.23;14.02;;;16.90;99.90;;;;;;5025276;28;20179;-52
2021/08/31 06:24:39;;;;;;;14.17;12.80;;;16.90;99.90;;;;;;5027731;28;20181;-52
2021/08/31 06:27:05;;;;;;;15.00;13.13;;;16.90;99.90;;;;;;5021795;28;20260;-50
2021/08/31 06:29:31;;;;;;;16.10;14.30;;;17.00;99.90;;;;;;5026645;28;20209;-51
2021/08/31 06:31:57;;;;;;;13.80;11.93;;;16.90;99.90;;;;;;5028081;28;20269;-50
2021/08/31 06:34:22;;;;;;;13.37;12.03;;;16.80;99.90;;;;;;5027256;28;20182;-49
2021/08/31 06:36:48;;;;;;;13.83;12.10;;;17.00;99.90;;;;;;5028777;28;20327;-50
2021/08/31 06:39:15;;;;;;;14.00;12.60;;;16.90;99.90;;;;;;5021271;28;20472;-50
2021/08/31 06:41:40;;;;;;;13.23;11.88;;;16.80;99.90;;;;;;5017245;28;20175;-51
2021/08/31 06:44:06;;;;;;;14.93;12.47;;;16.70;99.90;;;;;;5027576;28;20189;-50
2021/08/31 06:46:32;;;;;;;14.80;12.60;;;16.70;99.90;;;;;;5025702;28;20472;-51
2021/08/31 06:48:57;;;;;;;15.10;13.40;;;16.70;99.90;;;;;;5029804;28;20217;-51
2021/08/31 06:51:23;;;;;;;13.43;11.80;;;16.80;99.90;;;;;;5024563;28;20190;-50
2021/08/31 06:53:49;;;;;;;14.73;11.70;;;17.00;99.90;;;;;;5024264;28;20188;-50
2021/08/31 06:56:15;;;;;;;12.73;11.43;;;17.10;99.90;;;;;;5027648;28;20213;-49
2021/08/31 06:58:41;;;;;;;12.77;10.70;;;17.20;99.90;;;;;;5024103;28;20209;-50
2021/08/31 07:01:06;;;;;;;12.07;10.97;;;17.00;99.90;;;;;;5025198;28;20285;-50
2021/08/31 07:03:32;;;;;;;14.00;12.27;;;17.20;99.90;;;;;;5023318;28;20644;-50
2021/08/31 07:05:58;;;;;;;14.07;12.67;;;17.20;99.90;;;;;;5028645;28;20194;-50
2021/08/31 07:08:23;;;;;;;12.30;11.10;;;17.10;99.90;;;;;;5029286;28;20198;-51
2021/08/31 07:10:49;;;;;;;12.30;11.13;;;17.30;99.90;;;;;;5019505;28;20182;-50
2021/08/31 07:13:15;;;;;;;13.60;11.00;;;17.30;99.90;;;;;;5026862;28;20186;-49
2021/08/31 07:15:42;;;;;;;13.90;10.32;;;17.10;99.90;;;;;;5026532;28;20566;-50
2021/08/31 07:18:08;;;;;;;10.65;9.55;;;17.10;99.90;;;;;;5023316;28;20218;-50
2021/08/31 07:20:35;;;;;;;12.15;10.95;;;17.20;99.90;;;;;;5021007;28;20616;-51
2021/08/31 07:23:00;;;;;;;10.65;9.65;;;17.40;99.90;;;;;;5030592;28;20182;-51
2021/08/31 07:25:26;;;;;;;10.17;9.17;;;17.40;99.90;;;;;;5026118;28;20935;-52
2021/08/31 07:27:52;;;;;;;10.57;9.50;;;17.30;99.90;;;;;;5017874;28;20205;-49
2021/08/31 07:30:18;;;;;;;10.83;9.73;;;17.50;99.90;;;;;;5023068;28;20194;-50
2021/08/31 07:32:44;;;;;;;11.00;9.85;;;17.40;99.90;;;;;;5027500;28;20436;-49
2021/08/31 07:35:10;;;;;;;10.13;9.13;;;17.30;99.90;;;;;;5026354;28;20247;-49
2021/08/31 07:37:36;;;;;;;10.30;9.20;;;17.30;99.90;;;;;;5024922;28;20293;-50
2021/08/31 07:40:02;;;;;;;10.13;9.13;;;17.30;99.90;;;;;;5034083;28;20262;-51
2021/08/31 07:42:28;;;;;;;11.45;10.07;;;17.30;99.90;;;;;;5030414;28;20436;-49
2021/08/31 07:44:54;;;;;;;10.07;9.07;;;17.40;99.90;;;;;;5033613;28;20186;-50
2021/08/31 07:47:19;;;;;;;10.90;9.70;;;17.50;99.90;;;;;;5032868;28;20198;-51
2021/08/31 07:49:45;;;;;;;10.73;9.73;;;17.30;99.90;;;;;;5030886;28;20179;-50
2021/08/31 07:52:11;;;;;;;10.63;9.20;;;17.20;99.90;;;;;;5028000;28;20189;-50
2021/08/31 07:54:37;;;;;;;10.33;9.13;;;17.40;99.90;;;;;;5029067;28;20174;-51
2021/08/31 07:57:03;;;;;;;9.77;8.83;;;17.70;99.90;;;;;;5032794;28;20452;-50
2021/08/31 07:59:29;;;;;;;9.48;8.57;;;17.50;99.90;;;;;;5026386;28;20206;-51
2021/08/31 08:01:55;;;;;;;11.30;9.90;;;17.50;99.90;;;;;;5026636;28;20178;-51
2021/08/31 08:04:21;;;;;;;15.47;11.50;;;17.60;99.90;;;;;;5032755;28;20293;-49
2021/08/31 08:06:46;;;;;;;12.80;9.73;;;17.50;99.90;;;;;;5027928;28;20456;-51
2021/08/31 08:09:12;;;;;;;11.20;10.00;;;17.60;99.90;;;;;;5023743;28;20188;-51
2021/08/31 08:11:38;;;;;;;9.20;7.53;;;17.70;99.90;;;;;;5019649;28;20194;-51
2021/08/31 08:14:05;;;;;;;10.70;8.87;;;17.80;99.90;;;;;;5025769;28;20206;-51
2021/08/31 08:16:30;;;;;;;8.82;7.40;;;17.70;99.90;;;;;;5029003;28;20468;-50
2021/08/31 08:18:56;;;;;;;10.93;9.70;;;17.80;99.90;;;;;;5025606;28;20809;-51
2021/08/31 08:21:22;;;;;;;10.73;9.70;;;17.90;99.90;;;;;;5030448;28;20520;-51
2021/08/31 08:23:48;;;;;;;10.50;9.50;;;17.80;99.90;;;;;;5029802;28;20174;-50
2021/08/31 08:26:14;;;;;;;15.20;10.07;;;18.00;99.90;;;;;;5022458;28;20320;-51
2021/08/31 08:28:40;;;;;;;13.33;9.33;;;17.90;99.90;;;;;;5030096;28;20502;-50
2021/08/31 08:31:06;;;;;;;10.30;9.30;;;18.00;99.90;;;;;;5031209;28;20195;-50
2021/08/31 08:33:32;;;;;;;10.85;8.38;;;18.10;99.90;;;;;;5031797;28;20741;-51
2021/08/31 08:36:00;;;;;;;9.55;8.55;;;18.20;99.90;;;;;;5027662;28;20570;-50
2021/08/31 08:38:26;;;;;;;9.60;8.45;;;18.50;99.90;;;;;;5024759;28;20210;-51
2021/08/31 08:40:52;;;;;;;12.05;9.05;;;18.10;99.90;;;;;;5027696;28;20189;-51
2021/08/31 08:43:18;;;;;;;9.70;8.63;;;18.00;99.90;;;;;;5028264;28;20187;-51
2021/08/31 08:45:47;;;;;;;13.70;9.03;;;17.90;99.90;;;;;;5024747;28;20577;-51
2021/08/31 08:48:20;;;;;;;11.43;8.27;;;17.80;99.90;;;;;;5031492;28;20463;-50
2021/08/31 08:50:47;;;;;;;8.85;7.95;;;17.90;99.90;;;;;;5027211;28;20229;-51
2021/08/31 08:53:14;;;;;;;25.25;13.77;;;18.30;99.90;;;;;;5028190;28;20190;-52
2021/08/31 08:55:40;;;;;;;10.00;9.00;;;18.30;99.90;;;;;;5013669;28;20214;-51
2021/08/31 08:58:06;;;;;;;17.30;10.80;;;18.40;99.90;;;;;;5024496;28;20519;-51
2021/08/31 09:00:54;;;;;;;10.03;8.83;;;18.70;99.90;;;;;;5029587;28;20669;-51
2021/08/31 09:03:22;;;;;;;9.90;8.90;;;18.90;99.90;;;;;;5031256;28;20599;-51
2021/08/31 09:05:50;;;;;;;9.23;8.32;;;19.00;99.90;;;;;;5025113;28;20691;-51
2021/08/31 09:08:16;;;;;;;8.63;7.80;;;19.10;99.90;;;;;;5021249;28;20318;-50
2021/08/31 09:10:45;;;;;;;7.87;7.13;;;19.10;99.90;;;;;;5027548;28;20289;-52
2021/08/31 09:13:11;;;;;;;8.70;7.90;;;19.10;99.90;;;;;;5028772;28;20281;-50
2021/08/31 09:15:41;;;;;;;9.75;8.80;;;19.10;99.90;;;;;;5022685;28;20217;-49
2021/08/31 09:18:10;;;;;;;8.35;7.60;;;19.10;99.90;;;;;;5026699;28;20220;-49
2021/08/31 09:20:37;;;;;;;8.73;7.68;;;18.90;99.90;;;;;;5024011;28;20182;-48
2021/08/31 09:23:05;;;;;;;8.65;7.75;;;19.20;99.90;;;;;;5031337;28;20273;-49
2021/08/31 09:25:40;;;;;;;8.20;7.45;;;19.40;99.90;;;;;;5021067;28;20585;-48
2021/08/31 09:28:28;;;;;;;9.57;7.05;;;19.50;99.90;;;;;;5029714;28;20216;-50
2021/08/31 09:31:07;;;;;;;8.30;7.60;;;19.80;99.90;;;;;;5032025;28;20579;-51
2021/08/31 09:33:36;;;;;;;7.65;7.00;;;19.90;99.90;;;;;;5029115;28;20183;-50
2021/08/31 09:36:13;;;;;;;9.40;8.50;;;20.10;99.90;;;;;;5026310;28;20190;-51
2021/08/31 09:38:56;;;;;;;8.07;7.30;;;20.20;99.90;;;;;;5027041;28;20246;-52
2021/08/31 09:41:37;;;;;;;8.02;7.22;;;20.50;99.90;;;;;;5030766;28;20325;-51
2021/08/31 09:44:08;;;;;;;8.13;6.20;;;20.40;99.90;;;;;;5030407;28;20651;-50
2021/08/31 09:47:00;;;;;;;8.55;7.85;;;20.20;99.90;;;;;;5023434;28;20206;-52
2021/08/31 09:49:28;;;;;;;6.88;6.28;;;20.20;99.90;;;;;;5024010;28;20674;-50
2021/08/31 09:52:12;;;;;;;7.75;7.00;;;20.10;99.90;;;;;;5022849;28;20193;-50
2021/08/31 09:54:40;;;;;;;7.88;7.18;;;20.30;99.90;;;;;;5030335;28;20189;-52
2021/08/31 09:57:36;;;;;;;7.70;7.00;;;20.40;99.90;;;;;;5020215;28;20727;-51
2021/08/31 10:00:06;;;;;;;6.90;6.28;;;20.00;99.90;;;;;;5018798;28;20196;-50
2021/08/31 10:02:32;;;;;;;6.10;5.60;;;20.00;99.90;;;;;;5029924;28;20272;-50
2021/08/31 10:04:58;;;;;;;6.90;6.30;;;20.00;99.90;;;;;;5027801;28;20281;-51
2021/08/31 10:07:24;;;;;;;6.87;6.27;;;20.00;99.90;;;;;;5025923;28;20452;-50
2021/08/31 10:09:51;;;;;;;9.30;8.38;;;19.80;99.90;;;;;;5029705;28;20664;-51
2021/08/31 10:12:20;;;;;;;9.88;7.40;;;19.40;99.90;;;;;;5021877;28;20201;-51
2021/08/31 10:14:50;;;;;;;9.13;8.05;;;19.00;99.90;;;;;;5029984;28;20220;-51
2021/08/31 10:17:19;;;;;;;6.95;6.28;;;19.20;99.90;;;;;;5035867;28;20385;-50
2021/08/31 10:19:46;;;;;;;7.18;6.57;;;19.40;99.90;;;;;;5020216;28;20198;-51
2021/08/31 10:22:15;;;;;;;7.70;7.00;;;19.50;99.90;;;;;;5028204;28;20186;-49
2021/08/31 10:24:47;;;;;;;7.95;7.20;;;19.70;99.90;;;;;;5028978;28;20194;-51
2021/08/31 10:27:32;;;;;;;8.57;7.88;;;19.80;99.90;;;;;;5024988;28;20259;-51
2021/08/31 10:30:13;;;;;;;8.68;7.65;;;19.60;99.90;;;;;;5028142;28;20613;-51
2021/08/31 10:32:40;;;;;;;8.50;7.72;;;19.90;99.90;;;;;;5029472;28;20273;-51
2021/08/31 10:35:06;;;;;;;9.13;8.10;;;19.90;99.90;;;;;;5021529;28;20579;-50
2021/08/31 10:38:00;;;;;;;8.18;7.47;;;20.20;99.90;;;;;;5029140;28;20347;-49
2021/08/31 10:40:43;;;;;;;7.65;6.95;;;20.30;99.90;;;;;;5028597;28;20194;-52
2021/08/31 10:43:16;;;;;;;8.35;7.63;;;20.30;99.90;;;;;;5027559;28;20174;-50
2021/08/31 10:45:52;;;;;;;7.10;6.50;;;20.30;99.90;;;;;;5029254;28;20236;-52
2021/08/31 10:48:21;;;;;;;7.07;6.50;;;20.60;99.90;;;;;;5027115;28;20205;-51
2021/08/31 10:51:02;;;;;;;7.68;6.97;;;20.70;99.90;;;;;;5014846;28;20183;-51
2021/08/31 10:53:43;;;;;;;8.68;7.85;;;20.50;99.90;;;;;;5017970;28;20182;-50
2021/08/31 10:59:00;;;;;;;10.02;9.02;;;20.50;99.90;;;;;;5020353;28;20671;-51
2021/08/31 11:01:38;;;;;;;9.02;7.75;;;20.50;99.90;;;;;;5016478;28;20647;-50
2021/08/31 11:04:28;;;;;;;8.40;7.70;;;20.40;99.90;;;;;;5028335;28;20177;-51
2021/08/31 11:07:04;;;;;;;8.05;7.35;;;20.70;99.90;;;;;;5021353;28;20259;-50
2021/08/31 11:09:31;;;;;;;7.38;6.75;;;20.80;99.90;;;;;;5030174;28;20190;-49
2021/08/31 11:12:17;;;;;;;7.47;6.85;;;21.00;99.90;;;;;;5025337;28;20193;-51
2021/08/31 11:14:53;;;;;;;6.60;6.00;;;21.20;99.90;;;;;;5022951;28;20284;-50
2021/08/31 11:17:34;;;;;;;6.68;6.07;;;21.30;99.90;;;;;;5018364;28;20409;-50
2021/08/31 11:20:13;;;;;;;6.97;6.38;;;21.20;99.40;;;;;;5023531;28;20628;-50
2021/08/31 11:22:39;;;;;;;6.40;5.90;;;21.00;99.80;;;;;;5020387;28;20647;-50
2021/08/31 11:25:05;;;;;;;6.97;6.27;;;20.90;99.90;;;;;;5026994;28;20283;-50
2021/08/31 11:27:48;;;;;;;7.40;6.55;;;21.00;99.90;;;;;;5026620;28;20456;-52
2021/08/31 11:30:14;;;;;;;6.85;6.10;;;21.00;99.60;;;;;;5028499;28;20655;-51
2021/08/31 11:32:40;;;;;;;7.10;5.90;;;20.80;99.90;;;;;;5023914;28;20187;-51
2021/08/31 11:35:06;;;;;;;6.73;6.13;;;20.60;99.90;;;;;;5027022;28;20281;-51
2021/08/31 11:37:32;;;;;;;6.60;6.07;;;20.80;99.90;;;;;;5026584;28;20205;-52
2021/08/31 11:40:01;;;;;;;7.40;6.30;;;20.70;99.90;;;;;;5028425;28;20197;-50
2021/08/31 11:42:54;;;;;;;6.57;6.07;;;20.70;99.90;;;;;;5029443;28;20212;-51
2021/08/31 11:45:22;;;;;;;8.02;7.32;;;20.40;99.90;;;;;;5030744;28;20213;-50
2021/08/31 11:47:53;;;;;;;7.15;6.45;;;20.70;99.90;;;;;;5031926;28;20237;-51
2021/08/31 11:50:19;;;;;;;6.93;6.32;;;20.80;99.90;;;;;;5026466;28;20558;-51
2021/08/31 11:52:44;;;;;;;6.55;5.97;;;20.90;99.70;;;;;;5030652;28;20186;-51
2021/08/31 11:55:10;;;;;;;6.37;5.87;;;20.90;99.70;;;;;;5030100;28;20638;-51
2021/08/31 11:57:36;;;;;;;6.93;6.25;;;20.80;99.90;;;;;;5026328;28;20213;-52
2021/08/31 12:00:03;;;;;;;9.00;8.10;;;20.90;99.90;;;;;;5031661;28;20190;-51
2021/08/31 12:02:37;;;;;;;7.60;7.00;;;21.00;99.90;;;;;;5032038;28;20186;-52
2021/08/31 12:05:06;;;;;;;6.53;5.93;;;21.30;99.60;;;;;;5028057;28;20233;-51
2021/08/31 12:07:40;;;;;;;6.35;5.82;;;21.60;98.70;;;;;;5013223;28;20233;-51
2021/08/31 12:10:12;;;;;;;6.97;6.35;;;21.70;98.20;;;;;;5018371;28;20198;-51
2021/08/31 12:12:42;;;;;;;8.18;6.90;;;21.80;97.80;;;;;;5021799;28;20186;-51
2021/08/31 12:15:09;;;;;;;7.75;7.03;;;21.60;97.60;;;;;;5026322;28;20415;-51
2021/08/31 12:17:43;;;;;;;6.88;6.28;;;21.30;98.50;;;;;;5028005;28;20426;-50
2021/08/31 12:20:17;;;;;;;7.85;7.15;;;21.60;98.40;;;;;;5022346;28;20205;-52
2021/08/31 12:22:44;;;;;;;7.20;6.63;;;21.50;98.00;;;;;;5032034;28;20193;-51
2021/08/31 12:25:11;;;;;;;6.35;5.75;;;21.10;98.90;;;;;;5022245;28;20286;-52
2021/08/31 12:27:41;;;;;;;6.55;5.95;;;21.20;99.10;;;;;;5023475;28;20570;-52
2021/08/31 12:30:09;;;;;;;6.30;5.80;;;21.20;98.50;;;;;;5026376;28;20186;-51
2021/08/31 12:32:35;;;;;;;6.18;5.57;;;21.40;97.80;;;;;;5023901;28;20190;-51
2021/08/31 12:35:24;;;;;;;8.88;6.32;;;21.50;97.60;;;;;;5025631;28;20189;-51
2021/08/31 12:38:12;;;;;;;7.07;6.35;;;21.30;97.40;;;;;;5027757;28;20213;-51
2021/08/31 12:40:51;;;;;;;7.20;6.50;;;21.20;98.20;;;;;;5024914;28;20470;-50